Broad Blunsdon, United Kingdom
Current Conditions -  °F | °C
As of 8:37 AM on Friday 31 Oct 2014 (Local Time) from EGVA Reporting Station
Haze Haze  
Wind Chill: 59°   Ceiling: 10000
Heat Index: 59°   Visibility: 5mi
Dew Point: 57°   Wind: 5mph
Humidity: 94%   Direction: 160°SSE
Pressure: 30"   Gusts: NA
Location:  51.61°N, 1.78°W
Report Text: EGVA 310837Z AUTO 16004KT 8000 BR OVC100 15/14 A3000 RMK AO2
Loading
Personal Weather Stations






























Interactive Weather Map
Tropical Storm Tracking
New forecast layout! Learn more

10-Day Weather Forecast

Advertisements
Track Severe Weather on mobile